Terminal Aerodrome Forecast
Issued by NWS Wilmington, OH

Current Version | Previous Version | Graphics & Text | Print | Product List | Glossary On
Versions: 1 2 3 4 5 6 7 8 9 10 11 12 13 14 15 16 17 18 19 20 21
619
FTUS41 KILN 042106 AAA
TAFCVG
TAF AMD
KCVG 042106Z 0421/0524 29009KT P6SM BKN045
     FM042230 29005KT P6SM SKC
     FM051000 22003KT P6SM SKC
     FM051700 22007KT P6SM SCT250
     FM052200 20004KT P6SM BKN250=

USA.gov is the U.S. government's official web portal to all federal, state and local government web resources and services.